Illizi, Algeria
Current Conditions -  °F | °C
As of 5:00 AM on Monday 24 Nov 2014 (Local Time) from DAAP Reporting Station
Clear Clear  
Wind Chill: 57°   Ceiling: Unl
Heat Index: 57°   Visibility: 6mi
Dew Point: 37°   Wind: 9mph
Humidity: 48%   Direction: 90°E
Pressure: 30.12"   Gusts: NA
Location:  26.5°N, 8.42°E
Report Text: DAAP 240400Z 09008KT CAVOK 14/03 Q1020
Loading
Personal Weather Stations






























Interactive Weather Map New forecast layout! Learn more

10-Day Weather Forecast

Advertisements
Track Severe Weather on mobile